Aviation Digital Data Service (ADDS)

Output produced by METARs form (0716 UTC 26 March 2017)
found at http://aviationweather.gov/adds/metars/
 
KJAX 260540Z 2606/2706 13004KT P6SM BKN250 
     FM261300 14007KT P6SM SCT050 BKN120 
     FM261600 12009KT P6SM SCT040 BKN100 
     FM270300 12003KT P6SM SCT250